createdAt,value
2022-09-12T00:01:12.012Z,4.70
2022-09-12T00:03:39.411Z,4.30
2022-09-12T00:06:19.276Z,3.97
2022-09-12T00:08:49.634Z,4.07
2022-09-12T00:11:16.632Z,3.10
2022-09-12T00:13:43.888Z,3.43
2022-09-12T00:16:17.951Z,3.50
2022-09-12T00:18:46.674Z,3.30
2022-09-12T00:21:14.403Z,3.87
2022-09-12T00:23:41.406Z,4.07
2022-09-12T00:26:08.566Z,4.07
2022-09-12T00:28:36.682Z,4.93
2022-09-12T00:30:25.289Z,15.53
2022-09-12T00:31:08.412Z,3.80
2022-09-12T00:32:54.737Z,18.60
2022-09-12T00:33:35.802Z,4.87
2022-09-12T00:35:22.963Z,16.70
2022-09-12T00:36:06.963Z,4.70
2022-09-12T00:38:34.198Z,4.20
2022-09-12T00:40:24.256Z,15.47
2022-09-12T00:41:01.211Z,4.50
2022-09-12T00:43:31.208Z,4.90
2022-09-12T00:45:25.105Z,16.13
2022-09-12T00:45:58.828Z,5.23
2022-09-12T00:47:53.370Z,16.80
2022-09-12T00:48:29.917Z,4.50
2022-09-12T00:50:56.967Z,4.60
2022-09-12T00:52:58.831Z,16.43
2022-09-12T00:53:24.001Z,4.53
2022-09-12T00:55:31.334Z,14.63
2022-09-12T00:55:51.899Z,3.30
2022-09-12T00:58:02.422Z,17.30
2022-09-12T00:58:22.601Z,4.00
2022-09-12T01:00:49.850Z,4.90
2022-09-12T01:03:08.557Z,18.10
2022-09-12T01:03:18.256Z,3.87
2022-09-12T01:05:53.747Z,4.63
2022-09-12T01:08:07.666Z,15.73
2022-09-12T01:08:21.167Z,4.70
2022-09-12T01:10:49.313Z,4.30
2022-09-12T01:13:16.669Z,3.90
2022-09-12T01:15:42.233Z,15.00
2022-09-12T01:15:43.615Z,5.13
2022-09-12T01:18:17.977Z,18.00
2022-09-12T01:18:21.512Z,6.20
2022-09-12T01:21:06.203Z,3.80
2022-09-12T01:24:04.686Z,5.40
2022-09-12T01:26:52.191Z,5.50
2022-09-12T01:29:37.980Z,5.93
2022-09-12T01:30:04.772Z,16.93
2022-09-12T01:32:04.969Z,5.60
2022-09-12T01:34:39.117Z,5.70
2022-09-12T01:37:17.638Z,5.93
2022-09-12T01:40:00.403Z,5.63
2022-09-12T01:40:40.746Z,14.30
2022-09-12T01:42:27.407Z,6.37
2022-09-12T01:43:18.276Z,16.40
2022-09-12T01:45:00.476Z,5.60
2022-09-12T01:47:30.171Z,6.27
2022-09-12T01:50:09.022Z,7.50
2022-09-12T01:52:43.195Z,6.67
2022-09-12T01:53:45.828Z,17.80
2022-09-12T01:55:22.436Z,6.67
2022-09-12T01:56:21.688Z,18.97
2022-09-12T01:58:01.405Z,5.53
2022-09-12T01:58:55.468Z,17.47
2022-09-12T02:00:28.362Z,5.67
2022-09-12T02:01:29.815Z,16.10
2022-09-12T02:03:02.576Z,5.83
2022-09-12T02:04:06.115Z,14.60
2022-09-12T02:05:32.891Z,6.27
2022-09-12T02:06:39.141Z,16.20
2022-09-12T02:08:19.951Z,6.77
2022-09-12T02:10:57.541Z,7.30
2022-09-12T02:11:46.655Z,18.80
2022-09-12T02:13:30.006Z,6.67
2022-09-12T02:16:02.759Z,6.27
2022-09-12T02:16:57.883Z,17.70
2022-09-12T02:18:30.780Z,7.37
2022-09-12T02:19:30.942Z,19.63
2022-09-12T02:20:58.147Z,5.67
2022-09-12T02:22:01.156Z,20.97
2022-09-12T02:23:28.183Z,6.40
2022-09-12T02:25:57.500Z,7.70
2022-09-12T02:27:07.823Z,20.13
2022-09-12T02:28:28.101Z,7.47
2022-09-12T02:29:36.288Z,16.20
2022-09-12T02:31:13.645Z,6.23
2022-09-12T02:32:08.302Z,17.33
2022-09-12T02:33:56.331Z,7.67
2022-09-12T02:34:46.251Z,18.90
2022-09-12T02:36:40.831Z,8.13
2022-09-12T02:39:07.856Z,7.60
2022-09-12T02:41:34.879Z,7.50
2022-09-12T02:42:28.587Z,19.40
2022-09-12T02:44:03.399Z,8.40
2022-09-12T02:44:58.033Z,19.80
2022-09-12T02:46:41.559Z,8.70
2022-09-12T02:47:30.914Z,18.90
2022-09-12T02:49:09.481Z,7.77
2022-09-12T02:50:00.679Z,15.70
2022-09-12T02:51:36.919Z,9.17
2022-09-12T02:54:06.364Z,8.70
2022-09-12T02:55:03.687Z,18.00
2022-09-12T02:56:33.406Z,8.30
2022-09-12T02:57:32.235Z,21.20
2022-09-12T02:59:06.059Z,6.77
2022-09-12T03:00:02.623Z,21.00
2022-09-12T03:01:39.128Z,6.93
2022-09-12T03:02:40.209Z,20.07
2022-09-12T03:04:24.716Z,6.20
2022-09-12T03:06:51.623Z,7.47
2022-09-12T03:09:42.335Z,7.70
2022-09-12T03:11:09.812Z,20.23
2022-09-12T03:12:11.895Z,8.00
2022-09-12T03:14:53.051Z,8.50
2022-09-12T03:17:23.197Z,9.30
2022-09-12T03:19:53.689Z,10.27
2022-09-12T03:22:20.603Z,8.90
2022-09-12T03:24:22.640Z,18.10
2022-09-12T03:25:13.016Z,7.67
2022-09-12T03:27:41.557Z,10.63
2022-09-12T03:29:25.637Z,21.77
2022-09-12T03:30:08.990Z,9.73
2022-09-12T03:32:42.940Z,10.10
2022-09-12T03:35:10.811Z,10.97
2022-09-12T03:36:59.981Z,22.87
2022-09-12T03:37:37.847Z,10.83
2022-09-12T03:39:29.074Z,22.43
2022-09-12T03:40:05.666Z,9.47
2022-09-12T03:42:32.803Z,10.60
2022-09-12T03:44:30.941Z,22.30
2022-09-12T03:44:59.762Z,10.23
2022-09-12T03:46:59.328Z,19.80
2022-09-12T03:47:26.716Z,9.40
2022-09-12T03:49:53.671Z,10.97
2022-09-12T03:52:01.763Z,18.60
2022-09-12T03:52:20.659Z,11.00
2022-09-12T03:54:30.123Z,18.70
2022-09-12T03:54:47.651Z,10.07
2022-09-12T03:56:58.763Z,19.97
2022-09-12T03:57:14.613Z,10.20
2022-09-12T03:59:41.607Z,12.27
2022-09-12T04:02:00.581Z,21.80
2022-09-12T04:02:09.832Z,12.27
2022-09-12T04:04:29.315Z,23.10
2022-09-12T04:04:36.814Z,11.57
2022-09-12T04:07:03.827Z,10.70
2022-09-12T04:09:30.768Z,10.97
2022-09-12T04:11:57.755Z,8.77
2022-09-12T04:12:00.538Z,22.73
2022-09-12T04:14:24.926Z,11.37
2022-09-12T04:14:28.769Z,18.07
2022-09-12T04:16:52.055Z,10.60
2022-09-12T04:19:19.032Z,9.70
2022-09-12T04:19:30.609Z,21.70
2022-09-12T04:21:46.052Z,10.70
2022-09-12T04:21:59.083Z,20.07
2022-09-12T04:24:13.040Z,11.57
2022-09-12T04:24:28.510Z,18.90
2022-09-12T04:26:39.978Z,10.47
2022-09-12T04:29:06.924Z,11.00
2022-09-12T04:31:33.936Z,11.30
2022-09-12T04:34:01.515Z,10.83
2022-09-12T04:34:32.517Z,20.10
2022-09-12T04:36:29.351Z,11.80
2022-09-12T04:37:01.034Z,17.97
2022-09-12T04:38:56.662Z,12.10
2022-09-12T04:41:25.051Z,11.67
2022-09-12T04:43:53.011Z,10.70
2022-09-12T04:46:20.327Z,11.43
2022-09-12T04:47:07.031Z,18.43
2022-09-12T04:48:47.855Z,10.40
2022-09-12T04:49:35.772Z,19.00
2022-09-12T04:51:20.134Z,11.80
2022-09-12T04:52:04.278Z,20.07
2022-09-12T04:53:51.048Z,12.30
2022-09-12T04:54:34.306Z,20.13
2022-09-12T04:56:18.399Z,12.00
2022-09-12T04:57:02.606Z,20.90
2022-09-12T04:58:45.556Z,10.90
2022-09-12T04:59:31.505Z,21.10
2022-09-12T05:01:17.026Z,10.67
2022-09-12T05:02:00.302Z,20.23
2022-09-12T05:03:44.512Z,11.33
2022-09-12T05:06:14.411Z,10.57
2022-09-12T05:06:56.773Z,20.27
2022-09-12T05:08:41.390Z,10.27
2022-09-12T05:11:10.716Z,10.00
2022-09-12T05:12:04.696Z,19.10
2022-09-12T05:13:38.813Z,9.90
2022-09-12T05:14:34.123Z,18.57
2022-09-12T05:16:06.608Z,11.53
2022-09-12T05:17:03.097Z,20.87
2022-09-12T05:18:34.711Z,12.13
2022-09-12T05:21:02.441Z,12.67
2022-09-12T05:23:29.556Z,13.87
2022-09-12T05:24:47.272Z,21.30
2022-09-12T05:25:57.766Z,11.43
2022-09-12T05:27:20.286Z,18.77
2022-09-12T05:28:25.366Z,10.80
2022-09-12T05:31:06.039Z,11.93
2022-09-12T05:33:34.095Z,11.57
2022-09-12T05:36:01.388Z,11.77
2022-09-12T05:37:26.187Z,17.90
2022-09-12T05:38:29.244Z,11.70
2022-09-12T05:39:54.929Z,19.50
2022-09-12T05:41:06.328Z,12.00
2022-09-12T05:42:25.976Z,18.20
2022-09-12T05:43:34.246Z,12.77
2022-09-12T05:44:54.368Z,19.03
2022-09-12T05:46:02.145Z,12.67
2022-09-12T05:47:24.231Z,15.37
2022-09-12T05:48:29.131Z,12.30
2022-09-12T05:51:03.170Z,12.67
2022-09-12T05:52:22.420Z,17.90
2022-09-12T05:53:31.048Z,13.23
2022-09-12T05:56:24.588Z,14.33
2022-09-12T05:59:00.904Z,14.63
2022-09-12T06:01:28.564Z,14.90
2022-09-12T06:03:56.791Z,13.90
2022-09-12T06:06:24.636Z,14.60
2022-09-12T06:08:53.046Z,14.27
2022-09-12T06:11:21.691Z,15.10
2022-09-12T06:13:48.812Z,13.97
2022-09-12T06:16:26.642Z,13.70
2022-09-12T06:18:54.849Z,13.80
2022-09-12T06:21:22.257Z,14.50
2022-09-12T06:23:49.695Z,13.60
2022-09-12T06:26:17.946Z,15.43
2022-09-12T06:28:46.412Z,14.10
2022-09-12T06:31:17.803Z,15.50
2022-09-12T06:33:35.586Z,16.90
2022-09-12T06:33:45.946Z,15.67
2022-09-12T06:36:14.228Z,20.07
2022-09-12T06:36:14.940Z,16.73
2022-09-12T06:38:41.357Z,19.30
2022-09-12T06:41:09.482Z,18.30
2022-09-12T06:43:37.023Z,19.77
2022-09-12T06:46:04.577Z,19.50
2022-09-12T06:48:31.667Z,19.80
2022-09-12T06:49:44.670Z,17.67
2022-09-12T06:51:02.634Z,19.37
2022-09-12T06:52:13.625Z,18.00
2022-09-12T06:53:30.585Z,19.37
2022-09-12T06:54:43.046Z,17.53
2022-09-12T06:55:58.584Z,22.30
2022-09-12T06:58:29.539Z,25.30
2022-09-12T07:00:26.535Z,17.77
2022-09-12T07:01:03.537Z,26.20
2022-09-12T07:02:58.198Z,17.60
2022-09-12T07:03:30.644Z,22.30
2022-09-12T07:05:40.634Z,15.97
2022-09-12T07:05:57.637Z,21.53
2022-09-12T07:08:24.802Z,20.80
2022-09-12T07:10:51.771Z,22.47
2022-09-12T07:13:19.800Z,22.97
2022-09-12T07:15:46.861Z,18.90
2022-09-12T07:18:13.951Z,20.97
2022-09-12T07:20:41.574Z,25.10
2022-09-12T07:23:08.925Z,19.90
2022-09-12T07:25:36.118Z,23.33
2022-09-12T07:28:03.446Z,19.33
2022-09-12T07:30:30.460Z,18.83
2022-09-12T07:31:11.827Z,17.87
2022-09-12T07:32:57.461Z,17.50
2022-09-12T07:35:24.480Z,20.47
2022-09-12T07:36:55.414Z,14.53
2022-09-12T07:37:51.432Z,19.20
2022-09-12T07:39:38.190Z,15.53
2022-09-12T07:40:18.468Z,18.87
2022-09-12T07:42:09.333Z,14.63
2022-09-12T07:42:45.563Z,17.80
2022-09-12T07:44:41.958Z,16.33
2022-09-12T07:45:12.879Z,18.10
2022-09-12T07:47:30.041Z,16.73
2022-09-12T07:47:40.773Z,15.97
2022-09-12T07:50:02.134Z,14.70
2022-09-12T07:50:08.009Z,18.00
2022-09-12T07:52:34.959Z,16.27
2022-09-12T07:55:03.009Z,16.33
2022-09-12T07:57:30.054Z,14.90
2022-09-12T07:59:56.560Z,16.47
2022-09-12T08:02:23.100Z,13.67
2022-09-12T08:04:49.719Z,14.17
2022-09-12T08:07:04.209Z,12.70
2022-09-12T08:07:18.240Z,15.10
2022-09-12T08:09:45.290Z,13.50
2022-09-12T08:09:48.582Z,15.03
2022-09-12T08:12:12.354Z,12.23
2022-09-12T08:12:36.302Z,14.43
2022-09-12T08:14:39.391Z,11.63
2022-09-12T08:17:06.673Z,10.70
2022-09-12T08:19:33.638Z,10.17
2022-09-12T08:22:00.741Z,11.70
2022-09-12T08:24:27.761Z,9.40
2022-09-12T08:26:54.788Z,9.70
2022-09-12T08:29:21.802Z,8.60
2022-09-12T08:31:48.805Z,8.30
2022-09-12T08:34:18.583Z,7.60
2022-09-12T08:36:46.135Z,6.60
2022-09-12T08:39:14.292Z,6.20
2022-09-12T08:40:02.422Z,13.50
2022-09-12T08:41:48.269Z,5.70
2022-09-12T08:44:18.014Z,5.60
2022-09-12T08:45:51.320Z,11.40
2022-09-12T08:46:57.108Z,4.97
2022-09-12T08:48:21.287Z,11.57
2022-09-12T08:49:28.301Z,5.20
2022-09-12T08:51:56.250Z,4.10
2022-09-12T08:54:28.862Z,3.93
2022-09-12T08:57:02.054Z,3.80
2022-09-12T08:59:33.088Z,4.27
2022-09-12T09:02:01.657Z,4.00
2022-09-12T09:04:41.553Z,4.20
2022-09-12T09:06:10.259Z,10.40
2022-09-12T09:07:16.519Z,2.87
2022-09-12T09:10:06.616Z,2.90
2022-09-12T09:12:40.416Z,2.20
2022-09-12T09:15:26.360Z,3.10
2022-09-12T09:17:54.924Z,3.47
2022-09-12T09:18:59.017Z,8.93
2022-09-12T09:20:33.483Z,3.67
2022-09-12T09:23:08.897Z,2.03
2022-09-12T09:25:41.308Z,1.50
2022-09-12T09:27:55.248Z,9.67
2022-09-12T09:28:13.108Z,1.40
2022-09-12T09:30:42.285Z,1.47
2022-09-12T09:33:12.259Z,1.40
2022-09-12T09:33:12.569Z,8.00
2022-09-12T09:35:44.228Z,1.27
2022-09-12T09:35:46.550Z,6.30
2022-09-12T09:38:22.837Z,1.30
2022-09-12T09:38:54.317Z,7.57
2022-09-12T09:41:05.268Z,1.20
2022-09-12T09:43:32.314Z,1.30
2022-09-12T09:46:00.587Z,1.10
2022-09-12T09:48:31.416Z,1.53
2022-09-12T09:51:00.255Z,1.10
2022-09-12T09:53:34.799Z,1.67
2022-09-12T09:56:00.660Z,7.40
2022-09-12T09:56:03.406Z,1.37
2022-09-12T09:58:31.146Z,1.23
2022-09-12T09:59:00.270Z,6.67
2022-09-12T10:01:15.565Z,1.50
2022-09-12T10:01:31.535Z,6.80
2022-09-12T10:03:48.383Z,1.63
2022-09-12T10:04:15.166Z,7.10
2022-09-12T10:06:21.274Z,1.10
2022-09-12T10:08:49.469Z,1.33
2022-09-12T10:11:16.405Z,1.50
2022-09-12T10:13:14.308Z,5.43
2022-09-12T10:13:53.157Z,1.40
2022-09-12T10:16:22.531Z,1.37
2022-09-12T10:18:53.011Z,1.43
2022-09-12T10:21:29.538Z,1.63
2022-09-12T10:24:05.719Z,1.47
2022-09-12T10:26:34.299Z,1.40
2022-09-12T10:29:04.455Z,1.83
2022-09-12T10:31:43.061Z,2.10
2022-09-12T10:34:19.702Z,1.90
2022-09-12T10:36:46.671Z,1.90
2022-09-12T10:39:18.855Z,1.80
2022-09-12T10:41:46.480Z,1.90
2022-09-12T10:44:33.683Z,1.90
2022-09-12T10:47:01.479Z,2.00
2022-09-12T10:49:30.320Z,1.70
2022-09-12T10:51:59.591Z,1.63
2022-09-12T10:54:27.972Z,1.93
2022-09-12T10:55:37.067Z,4.40
2022-09-12T10:56:58.006Z,2.30
2022-09-12T10:59:38.522Z,1.60
2022-09-12T11:02:18.987Z,2.13
2022-09-12T11:05:00.927Z,2.20
2022-09-12T11:07:34.984Z,2.40
2022-09-12T11:10:17.891Z,1.63
2022-09-12T11:13:00.676Z,1.80
2022-09-12T11:15:37.857Z,1.63
2022-09-12T11:16:53.914Z,4.50
2022-09-12T11:18:23.413Z,1.83
2022-09-12T11:21:03.925Z,1.93
2022-09-12T11:23:37.187Z,1.73
2022-09-12T11:26:10.281Z,2.17
2022-09-12T11:28:47.787Z,2.10
2022-09-12T11:31:21.612Z,1.60
2022-09-12T11:33:53.939Z,1.70
2022-09-12T11:35:26.378Z,4.67
2022-09-12T11:36:30.013Z,1.77
2022-09-12T11:38:33.607Z,4.80
2022-09-12T11:39:02.368Z,1.30
2022-09-12T11:41:35.388Z,2.00
2022-09-12T11:44:02.340Z,2.20
2022-09-12T11:46:19.244Z,4.73
2022-09-12T11:46:39.303Z,2.40
2022-09-12T11:48:53.329Z,4.60
2022-09-12T11:49:15.631Z,2.50
2022-09-12T11:51:49.963Z,2.23
2022-09-12T11:54:35.039Z,1.60
2022-09-12T11:57:06.815Z,1.80
2022-09-12T11:59:45.180Z,1.70
2022-09-12T12:02:14.154Z,1.73
2022-09-12T12:04:56.500Z,2.20
2022-09-12T12:07:23.527Z,1.90
2022-09-12T12:09:51.552Z,2.30
2022-09-12T12:12:24.312Z,2.10
2022-09-12T12:14:52.876Z,1.60
2022-09-12T12:17:21.276Z,1.80
2022-09-12T12:19:57.273Z,1.77
2022-09-12T12:22:26.632Z,2.50
2022-09-12T12:24:54.955Z,2.03
2022-09-12T12:27:44.939Z,2.23
2022-09-12T12:30:34.963Z,1.80
2022-09-12T12:33:02.368Z,1.80
2022-09-12T12:35:38.071Z,2.20
2022-09-12T12:38:06.810Z,2.07
2022-09-12T12:40:33.806Z,1.53
2022-09-12T12:43:02.356Z,2.13
2022-09-12T12:45:29.340Z,2.80
2022-09-12T12:47:58.765Z,2.20
2022-09-12T12:50:27.683Z,1.97
2022-09-12T12:52:54.671Z,2.40
2022-09-12T12:53:06.440Z,4.30
2022-09-12T12:55:31.163Z,2.93
2022-09-12T12:55:38.613Z,4.50
2022-09-12T12:57:58.916Z,2.57
2022-09-12T12:58:08.101Z,3.93
2022-09-12T13:00:26.271Z,2.00
2022-09-12T13:00:38.392Z,4.00
2022-09-12T13:03:08.286Z,2.43
2022-09-12T13:05:46.935Z,2.30
2022-09-12T13:05:47.006Z,4.10
2022-09-12T13:08:20.665Z,2.70
2022-09-12T13:08:28.747Z,4.07
2022-09-12T13:10:52.244Z,2.00
2022-09-12T13:10:58.385Z,4.03
2022-09-12T13:13:28.038Z,4.50
2022-09-12T13:13:31.990Z,3.10
2022-09-12T13:15:56.390Z,4.50
2022-09-12T13:15:59.121Z,2.63
2022-09-12T13:18:45.154Z,2.90
2022-09-12T13:21:09.906Z,3.80
2022-09-12T13:21:16.986Z,3.37
2022-09-12T13:23:38.358Z,4.60
2022-09-12T13:23:45.040Z,3.10
2022-09-12T13:26:12.499Z,4.27
2022-09-12T13:26:13.919Z,3.10
2022-09-12T13:28:40.785Z,4.30
2022-09-12T13:28:40.931Z,3.90
2022-09-12T13:31:15.955Z,3.10
2022-09-12T13:33:46.280Z,2.80
2022-09-12T13:33:51.658Z,3.83
2022-09-12T13:36:28.805Z,3.80
2022-09-12T13:36:38.292Z,3.93
2022-09-12T13:38:55.727Z,3.93
2022-09-12T13:39:16.359Z,4.10
2022-09-12T13:41:30.184Z,3.50
2022-09-12T13:41:54.394Z,3.97
2022-09-12T13:43:57.456Z,3.83
2022-09-12T13:44:23.590Z,3.63
2022-09-12T13:46:30.158Z,3.33
2022-09-12T13:46:52.612Z,4.50
2022-09-12T13:48:58.679Z,4.23
2022-09-12T13:49:26.309Z,3.70
2022-09-12T13:51:26.970Z,3.87
2022-09-12T13:51:58.258Z,3.50
2022-09-12T13:53:56.183Z,4.53
2022-09-12T13:54:27.280Z,3.67
2022-09-12T13:56:23.191Z,3.80
2022-09-12T13:56:55.567Z,3.70
2022-09-12T13:58:55.396Z,3.50
2022-09-12T13:59:23.780Z,4.30
2022-09-12T14:01:22.801Z,3.40
2022-09-12T14:04:12.467Z,3.40
2022-09-12T14:04:45.024Z,3.70
2022-09-12T14:06:45.489Z,3.30
2022-09-12T14:07:15.480Z,3.97
2022-09-12T14:09:16.526Z,3.10
2022-09-12T14:09:45.182Z,3.40
2022-09-12T14:11:43.995Z,3.30
2022-09-12T14:12:20.523Z,3.57
2022-09-12T14:14:27.790Z,3.00
2022-09-12T14:14:50.091Z,3.37
2022-09-12T14:16:54.918Z,3.37
2022-09-12T14:17:23.457Z,3.50
2022-09-12T14:19:25.141Z,3.27
2022-09-12T14:19:53.803Z,2.90
2022-09-12T14:21:55.628Z,3.23
2022-09-12T14:22:22.641Z,3.47
2022-09-12T14:24:24.100Z,3.67
2022-09-12T14:26:56.738Z,3.73
2022-09-12T14:29:25.117Z,3.87
2022-09-12T14:30:03.556Z,3.70
2022-09-12T14:32:02.771Z,3.33
2022-09-12T14:32:31.879Z,3.57
2022-09-12T14:34:30.079Z,3.30
2022-09-12T14:35:08.405Z,3.83
2022-09-12T14:36:57.495Z,3.30
2022-09-12T14:37:36.663Z,3.80
2022-09-12T14:39:32.811Z,3.97
2022-09-12T14:40:05.877Z,4.20
2022-09-12T14:42:04.709Z,3.73
2022-09-12T14:44:33.022Z,4.17
2022-09-12T14:45:19.295Z,4.60
2022-09-12T14:47:10.963Z,3.17
2022-09-12T14:47:50.681Z,4.97
2022-09-12T14:49:38.283Z,2.97
2022-09-12T14:50:21.806Z,5.20
2022-09-12T14:52:06.409Z,3.23
2022-09-12T14:53:03.976Z,4.03
2022-09-12T14:54:37.218Z,2.87
2022-09-12T14:57:17.244Z,3.13
2022-09-12T14:59:44.224Z,2.37
2022-09-12T15:00:57.023Z,3.90
2022-09-12T15:02:16.960Z,3.20
2022-09-12T15:04:46.263Z,3.27
2022-09-12T15:06:07.890Z,4.20
2022-09-12T15:07:31.575Z,3.40
2022-09-12T15:08:36.229Z,4.63
2022-09-12T15:09:59.877Z,3.10
2022-09-12T15:12:27.344Z,3.03
2022-09-12T15:14:58.619Z,3.33
2022-09-12T15:17:25.539Z,3.17
2022-09-12T15:18:46.886Z,5.13
2022-09-12T15:19:52.543Z,3.50
2022-09-12T15:22:20.959Z,3.53
2022-09-12T15:23:52.216Z,4.17
2022-09-12T15:24:47.973Z,3.17
2022-09-12T15:27:14.948Z,3.37
2022-09-12T15:29:41.917Z,3.30
2022-09-12T15:32:14.485Z,3.30
2022-09-12T15:34:04.079Z,5.10
2022-09-12T15:34:41.429Z,2.90
2022-09-12T15:36:33.337Z,4.70
2022-09-12T15:37:13.851Z,3.47
2022-09-12T15:39:41.096Z,4.00
2022-09-12T15:41:36.947Z,5.30
2022-09-12T15:42:09.496Z,3.60
2022-09-12T15:44:05.240Z,5.00
2022-09-12T15:44:36.435Z,2.70
2022-09-12T15:47:03.591Z,3.10
2022-09-12T15:49:06.966Z,4.47
2022-09-12T15:49:30.556Z,2.67
2022-09-12T15:51:36.677Z,4.50
2022-09-12T15:51:57.503Z,2.70
2022-09-12T15:54:05.605Z,4.40
2022-09-12T15:54:24.458Z,2.97
2022-09-12T15:56:51.413Z,3.03
2022-09-12T15:59:07.018Z,4.83
2022-09-12T15:59:18.395Z,3.40
2022-09-12T16:01:35.230Z,4.33
2022-09-12T16:01:45.359Z,2.77
2022-09-12T16:04:06.593Z,4.20
2022-09-12T16:04:23.475Z,3.70
2022-09-12T16:06:37.362Z,4.60
2022-09-12T16:06:51.047Z,3.37
2022-09-12T16:09:05.915Z,4.53
2022-09-12T16:09:18.208Z,3.10
2022-09-12T16:11:35.204Z,4.10
2022-09-12T16:11:45.520Z,2.83
2022-09-12T16:14:03.737Z,4.80
2022-09-12T16:14:16.174Z,2.93
2022-09-12T16:16:32.209Z,4.73
2022-09-12T16:16:43.850Z,2.80
2022-09-12T16:19:00.414Z,4.63
2022-09-12T16:19:12.391Z,3.10
2022-09-12T16:21:39.516Z,3.30
2022-09-12T16:24:03.225Z,4.13
2022-09-12T16:24:06.543Z,3.30
2022-09-12T16:26:33.998Z,3.07
2022-09-12T16:29:01.048Z,3.47
2022-09-12T16:29:04.619Z,4.27
2022-09-12T16:31:28.972Z,4.10
2022-09-12T16:31:32.916Z,5.17
2022-09-12T16:33:56.062Z,3.07
2022-09-12T16:36:23.599Z,3.40
2022-09-12T16:36:34.375Z,4.60
2022-09-12T16:38:54.415Z,3.10
2022-09-12T16:39:03.972Z,4.30
2022-09-12T16:41:22.354Z,3.97
2022-09-12T16:41:32.214Z,3.80
2022-09-12T16:43:49.345Z,4.07
2022-09-12T16:46:20.626Z,5.43
2022-09-12T16:48:52.666Z,3.37
2022-09-12T16:49:02.544Z,4.43
2022-09-12T16:51:24.314Z,4.90
2022-09-12T16:51:33.173Z,4.17
2022-09-12T16:53:51.639Z,4.67
2022-09-12T16:56:18.952Z,4.20
2022-09-12T16:56:35.746Z,3.80
2022-09-12T16:58:45.955Z,4.60
2022-09-12T17:01:14.223Z,4.23
2022-09-12T17:01:37.535Z,3.87
2022-09-12T17:03:41.244Z,3.87
2022-09-12T17:04:06.661Z,3.87
2022-09-12T17:06:09.723Z,4.50
2022-09-12T17:06:35.027Z,4.00
2022-09-12T17:08:40.790Z,3.50
2022-09-12T17:09:04.295Z,4.27
2022-09-12T17:11:09.112Z,3.83
2022-09-12T17:14:00.243Z,3.50
2022-09-12T17:14:10.304Z,3.70
2022-09-12T17:16:23.616Z,3.17
2022-09-12T17:16:39.795Z,3.83
2022-09-12T17:18:52.003Z,4.20
2022-09-12T17:19:08.517Z,3.90
2022-09-12T17:21:19.278Z,3.47
2022-09-12T17:21:37.099Z,4.07
2022-09-12T17:23:46.693Z,3.23
2022-09-12T17:24:05.683Z,3.17
2022-09-12T17:26:14.907Z,3.63
2022-09-12T17:28:41.873Z,3.73
2022-09-12T17:29:08.446Z,3.70
2022-09-12T17:31:10.176Z,4.47
2022-09-12T17:31:36.745Z,3.47
2022-09-12T17:33:37.189Z,3.70
2022-09-12T17:34:05.211Z,4.30
2022-09-12T17:36:05.413Z,4.53
2022-09-12T17:36:33.971Z,3.60
2022-09-12T17:38:38.067Z,4.87
2022-09-12T17:39:03.611Z,3.23
2022-09-12T17:41:08.977Z,5.50
2022-09-12T17:41:32.785Z,4.73
2022-09-12T17:43:37.808Z,5.03
2022-09-12T17:44:03.518Z,4.47
2022-09-12T17:46:05.335Z,6.13
2022-09-12T17:46:34.924Z,3.50
2022-09-12T17:48:33.083Z,8.23
2022-09-12T17:51:06.692Z,10.13
2022-09-12T17:51:37.605Z,4.30
2022-09-12T17:53:34.510Z,10.30
2022-09-12T17:54:08.198Z,4.00
2022-09-12T17:56:03.003Z,8.43
2022-09-12T17:58:29.960Z,6.30
2022-09-12T18:01:22.461Z,6.90
2022-09-12T18:03:49.896Z,6.60
2022-09-12T18:06:16.832Z,6.53
2022-09-12T18:08:43.830Z,7.40
2022-09-12T18:11:10.767Z,6.33
2022-09-12T18:13:37.919Z,7.33
2022-09-12T18:16:09.725Z,8.13
2022-09-12T18:18:37.397Z,7.50
2022-09-12T18:21:05.768Z,6.90
2022-09-12T18:23:33.378Z,6.07
2022-09-12T18:26:01.268Z,8.57
2022-09-12T18:28:28.344Z,8.60
2022-09-12T18:30:55.517Z,8.30
2022-09-12T18:33:24.188Z,8.27
2022-09-12T18:35:20.088Z,6.47
2022-09-12T18:35:51.551Z,8.83
2022-09-12T18:37:49.723Z,5.90
2022-09-12T18:38:18.643Z,8.80
2022-09-12T18:40:18.489Z,5.30
2022-09-12T18:40:45.880Z,8.23
2022-09-12T18:42:46.330Z,5.60
2022-09-12T18:43:14.211Z,8.03
2022-09-12T18:45:14.525Z,5.97
2022-09-12T18:45:41.324Z,7.17
2022-09-12T18:47:42.777Z,5.80
2022-09-12T18:48:08.365Z,7.40
2022-09-12T18:50:11.291Z,4.33
2022-09-12T18:50:35.479Z,6.97
2022-09-12T18:53:02.692Z,7.00
2022-09-12T18:55:30.739Z,5.90
2022-09-12T18:57:42.028Z,4.63
2022-09-12T18:57:57.748Z,6.50
2022-09-12T19:00:25.112Z,6.20
2022-09-12T19:02:45.744Z,3.73
2022-09-12T19:02:52.143Z,6.30
2022-09-12T19:05:13.979Z,3.30
2022-09-12T19:05:19.122Z,6.13
2022-09-12T19:07:46.119Z,5.40
2022-09-12T19:10:13.088Z,6.50
2022-09-12T19:12:40.039Z,6.40
2022-09-12T19:12:49.495Z,3.73
2022-09-12T19:15:11.833Z,5.97
2022-09-12T19:15:17.706Z,3.50
2022-09-12T19:17:38.792Z,5.80
2022-09-12T19:20:06.227Z,5.93
2022-09-12T19:20:19.420Z,3.60
2022-09-12T19:22:33.189Z,5.80
2022-09-12T19:22:48.632Z,3.87
2022-09-12T19:25:00.446Z,5.73
2022-09-12T19:27:27.383Z,6.63
2022-09-12T19:27:50.015Z,3.67
2022-09-12T19:29:54.399Z,5.77
2022-09-12T19:32:21.364Z,5.87
2022-09-12T19:32:51.364Z,4.77
2022-09-12T19:34:48.383Z,6.20
2022-09-12T19:37:15.353Z,5.90
2022-09-12T19:37:51.623Z,5.10
2022-09-12T19:39:44.339Z,5.80
2022-09-12T19:40:19.870Z,3.67
2022-09-12T19:42:11.779Z,5.83
2022-09-12T19:44:39.749Z,6.50
2022-09-12T19:45:20.878Z,4.27
2022-09-12T19:47:07.169Z,6.27
2022-09-12T19:47:49.039Z,4.20
2022-09-12T19:49:35.233Z,6.00
2022-09-12T19:52:05.480Z,5.77
2022-09-12T19:52:45.379Z,4.43
2022-09-12T19:54:33.755Z,6.40
2022-09-12T19:57:00.800Z,6.80
2022-09-12T19:59:27.744Z,6.90
2022-09-12T20:01:54.764Z,6.33
2022-09-12T20:02:52.401Z,3.40
2022-09-12T20:04:21.830Z,6.43
2022-09-12T20:05:23.242Z,3.30
2022-09-12T20:06:48.774Z,7.00
2022-09-12T20:09:15.732Z,6.73
2022-09-12T20:11:42.677Z,7.57
2022-09-12T20:12:59.037Z,3.87
2022-09-12T20:14:09.780Z,8.93
2022-09-12T20:15:26.972Z,3.50
2022-09-12T20:16:36.786Z,6.20
2022-09-12T20:19:08.562Z,5.80
2022-09-12T20:20:29.069Z,3.00
2022-09-12T20:21:36.601Z,5.33
2022-09-12T20:24:05.783Z,5.43
2022-09-12T20:25:31.908Z,3.57
2022-09-12T20:26:33.186Z,5.73
2022-09-12T20:28:00.369Z,3.70
2022-09-12T20:29:00.523Z,6.00
2022-09-12T20:30:28.869Z,3.77
2022-09-12T20:31:27.984Z,6.10
2022-09-12T20:33:55.480Z,5.67
2022-09-12T20:36:23.367Z,5.40
2022-09-12T20:37:58.884Z,3.80
2022-09-12T20:38:56.487Z,5.80
2022-09-12T20:40:27.207Z,3.20
2022-09-12T20:41:27.423Z,5.43
2022-09-12T20:43:54.891Z,4.77
2022-09-12T20:46:22.782Z,5.43
2022-09-12T20:48:00.019Z,2.93
2022-09-12T20:48:50.418Z,5.60
2022-09-12T20:50:29.183Z,2.93
2022-09-12T20:51:18.571Z,5.70
2022-09-12T20:53:45.642Z,5.57
2022-09-12T20:55:30.195Z,3.50
2022-09-12T20:56:15.799Z,5.20
2022-09-12T20:57:59.995Z,3.20
2022-09-12T20:58:44.867Z,5.30
2022-09-12T21:00:30.092Z,3.80
2022-09-12T21:01:16.418Z,5.70
2022-09-12T21:03:44.172Z,5.60
2022-09-12T21:05:31.189Z,3.50
2022-09-12T21:06:17.261Z,5.10
2022-09-12T21:08:44.361Z,5.53
2022-09-12T21:11:11.374Z,4.90
2022-09-12T21:13:38.601Z,5.30
2022-09-12T21:15:36.138Z,2.90
2022-09-12T21:16:06.889Z,5.17
2022-09-12T21:18:34.536Z,4.60
2022-09-12T21:20:37.776Z,3.17
2022-09-12T21:21:01.582Z,7.70
2022-09-12T21:23:07.359Z,3.63
2022-09-12T21:23:28.951Z,7.17
2022-09-12T21:25:35.874Z,3.63
2022-09-12T21:25:56.063Z,5.90
2022-09-12T21:28:23.063Z,5.00
2022-09-12T21:30:38.825Z,3.10
2022-09-12T21:30:50.533Z,5.10
2022-09-12T21:33:18.295Z,5.80
2022-09-12T21:35:40.159Z,3.07
2022-09-12T21:35:45.362Z,5.43
2022-09-12T21:38:08.351Z,3.70
2022-09-12T21:38:12.459Z,6.50
2022-09-12T21:40:39.423Z,5.40
2022-09-12T21:43:10.441Z,5.47
2022-09-12T21:43:10.463Z,3.80
2022-09-12T21:45:39.437Z,5.40
2022-09-12T21:48:06.500Z,4.60
2022-09-12T21:48:13.714Z,3.50
2022-09-12T21:50:33.482Z,3.90
2022-09-12T21:50:41.906Z,3.47
2022-09-12T21:53:00.419Z,3.80
2022-09-12T21:53:10.056Z,3.23
2022-09-12T21:55:27.751Z,4.23
2022-09-12T21:55:38.228Z,3.60
2022-09-12T21:57:55.090Z,3.97
2022-09-12T21:58:07.781Z,3.53
2022-09-12T22:00:22.639Z,4.60
2022-09-12T22:02:49.809Z,4.20
2022-09-12T22:03:10.303Z,4.10
2022-09-12T22:05:17.415Z,3.90
2022-09-12T22:07:44.631Z,4.40
2022-09-12T22:08:08.431Z,3.80
2022-09-12T22:10:11.605Z,3.80
2022-09-12T22:10:36.583Z,3.97
2022-09-12T22:12:40.718Z,3.90
2022-09-12T22:15:36.236Z,4.00
2022-09-12T22:17:57.116Z,4.80
2022-09-12T22:20:24.249Z,4.23